createdAt,value
2018-01-22T00:00:02.943Z,951.44
2018-01-22T00:01:02.921Z,951.45
2018-01-22T00:02:02.901Z,951.55
2018-01-22T00:03:02.879Z,951.6
2018-01-22T00:04:02.860Z,951.64
2018-01-22T00:05:02.839Z,951.68
2018-01-22T00:06:02.819Z,951.66
2018-01-22T00:07:02.821Z,951.56
2018-01-22T00:08:02.779Z,951.5
2018-01-22T00:09:02.766Z,951.38
2018-01-22T00:10:02.738Z,951.34
2018-01-22T00:11:02.717Z,951.31
2018-01-22T00:12:02.697Z,951.32
2018-01-22T00:13:02.693Z,951.33
2018-01-22T00:14:02.654Z,951.33
2018-01-22T00:15:02.636Z,951.34
2018-01-22T00:16:02.615Z,951.28
2018-01-22T00:17:02.596Z,951.25
2018-01-22T00:18:02.574Z,951.18
2018-01-22T00:19:02.555Z,951.16
2018-01-22T00:20:02.538Z,951.11
2018-01-22T00:21:02.515Z,951.08
2018-01-22T00:22:02.493Z,951.12
2018-01-22T00:23:02.474Z,951.19
2018-01-22T00:24:02.454Z,951.23
2018-01-22T00:25:02.433Z,951.26
2018-01-22T00:26:02.427Z,951.27
2018-01-22T00:27:02.391Z,951.28
2018-01-22T00:28:02.372Z,951.2
2018-01-22T00:29:02.350Z,951.26
2018-01-22T00:30:02.331Z,951.25
2018-01-22T00:31:02.317Z,951.21
2018-01-22T00:32:02.290Z,951.23
2018-01-22T00:33:02.271Z,951.21
2018-01-22T00:34:02.260Z,951.21
2018-01-22T00:35:02.229Z,951.22
2018-01-22T00:36:02.272Z,951.2
2018-01-22T00:37:02.188Z,951.23
2018-01-22T00:38:02.170Z,951.24
2018-01-22T00:39:02.147Z,951.28
2018-01-22T00:40:02.129Z,951.28
2018-01-22T00:41:02.109Z,951.26
2018-01-22T00:42:02.088Z,951.25
2018-01-22T00:43:02.067Z,951.24
2018-01-22T00:44:02.047Z,951.21
2018-01-22T00:45:02.026Z,951.21
2018-01-22T00:46:02.006Z,951.22
2018-01-22T00:47:01.986Z,951.19
2018-01-22T00:48:01.966Z,951.16
2018-01-22T00:49:01.945Z,951.23
2018-01-22T00:50:01.928Z,951.29
2018-01-22T00:51:01.904Z,951.33
2018-01-22T00:52:01.884Z,951.25
2018-01-22T00:53:01.867Z,951.28
2018-01-22T00:54:01.844Z,951.21
2018-01-22T00:55:01.828Z,951.19
2018-01-22T00:56:01.803Z,951.21
2018-01-22T00:57:01.783Z,951.17
2018-01-22T00:58:01.763Z,951.14
2018-01-22T00:59:01.743Z,951.07
2018-01-22T01:00:01.724Z,951.04
2018-01-22T01:01:01.703Z,951.02
2018-01-22T01:02:01.682Z,950.95
2018-01-22T01:03:01.663Z,950.87
2018-01-22T01:04:01.641Z,950.87
2018-01-22T01:05:01.627Z,950.87
2018-01-22T01:06:01.607Z,950.87
2018-01-22T01:07:01.581Z,950.87
2018-01-22T01:08:01.564Z,950.9
2018-01-22T01:09:01.541Z,950.9
2018-01-22T01:10:01.522Z,950.9
2018-01-22T01:11:01.501Z,950.97
2018-01-22T01:12:01.480Z,950.93
2018-01-22T01:13:01.485Z,950.88
2018-01-22T01:14:01.442Z,950.87
2018-01-22T01:15:01.421Z,950.88
2018-01-22T01:16:01.403Z,950.85
2018-01-22T01:17:01.382Z,950.87
2018-01-22T01:18:01.362Z,950.85
2018-01-22T01:19:01.347Z,950.82
2018-01-22T01:20:01.322Z,950.75
2018-01-22T01:21:01.314Z,950.74
2018-01-22T01:22:01.283Z,950.76
2018-01-22T01:23:01.261Z,950.71
2018-01-22T01:24:01.242Z,950.7
2018-01-22T01:25:01.221Z,950.73
2018-01-22T01:26:01.202Z,950.72
2018-01-22T01:27:01.181Z,950.77
2018-01-22T01:28:01.162Z,950.81
2018-01-22T01:29:01.146Z,950.81
2018-01-22T01:30:01.122Z,950.87
2018-01-22T01:31:01.102Z,950.94
2018-01-22T01:32:01.082Z,950.92
2018-01-22T01:33:01.063Z,950.94
2018-01-22T01:34:01.043Z,950.9
2018-01-22T01:35:01.023Z,950.91
2018-01-22T01:36:01.002Z,950.88
2018-01-22T01:37:00.981Z,950.91
2018-01-22T01:38:00.965Z,950.88
2018-01-22T01:39:00.944Z,950.83
2018-01-22T01:40:00.923Z,950.82
2018-01-22T01:41:00.902Z,950.77
2018-01-22T01:42:00.883Z,950.75
2018-01-22T01:43:00.864Z,950.78
2018-01-22T01:44:00.844Z,950.76
2018-01-22T01:45:00.824Z,950.73
2018-01-22T01:46:00.804Z,950.68
2018-01-22T01:47:00.785Z,950.67
2018-01-22T01:48:00.765Z,950.68
2018-01-22T01:49:00.745Z,950.62
2018-01-22T01:50:00.726Z,950.61
2018-01-22T01:51:00.705Z,950.58
2018-01-22T01:52:00.686Z,950.57
2018-01-22T01:53:00.666Z,950.61
2018-01-22T01:54:00.646Z,950.6
2018-01-22T01:55:00.630Z,950.61
2018-01-22T01:56:00.606Z,950.57
2018-01-22T01:57:00.586Z,950.57
2018-01-22T01:58:00.567Z,950.48
2018-01-22T01:59:00.546Z,950.43
2018-01-22T02:00:00.540Z,950.43
2018-01-22T02:01:00.507Z,950.42
2018-01-22T02:02:00.489Z,950.45
2018-01-22T02:03:00.467Z,950.51
2018-01-22T02:04:00.447Z,950.5
2018-01-22T02:05:00.429Z,950.51
2018-01-22T02:06:00.410Z,950.49
2018-01-22T02:07:00.409Z,950.47
2018-01-22T02:08:00.398Z,950.46
2018-01-22T02:09:00.357Z,950.46
2018-01-22T02:10:00.332Z,950.46
2018-01-22T02:11:00.384Z,950.48
2018-01-22T02:12:00.301Z,950.48
2018-01-22T02:13:00.298Z,950.43
2018-01-22T02:14:00.249Z,950.38
2018-01-22T02:15:00.230Z,950.39
2018-01-22T02:16:00.210Z,950.4
2018-01-22T02:17:00.192Z,950.36
2018-01-22T02:18:00.171Z,950.37
2018-01-22T02:19:00.151Z,950.33
2018-01-22T02:20:00.132Z,950.32
2018-01-22T02:21:00.110Z,950.32
2018-01-22T02:22:00.091Z,950.29
2018-01-22T02:23:00.075Z,950.29
2018-01-22T02:24:00.061Z,950.29
2018-01-22T02:25:00.036Z,950.27
2018-01-22T02:26:00.018Z,950.21
2018-01-22T02:26:59.994Z,950.13
2018-01-22T02:27:59.974Z,950.14
2018-01-22T02:28:59.954Z,950.09
2018-01-22T02:29:59.956Z,950.01
2018-01-22T02:30:59.916Z,949.97
2018-01-22T02:31:59.896Z,949.92
2018-01-22T02:32:59.875Z,949.91
2018-01-22T02:33:59.856Z,949.82
2018-01-22T02:34:59.837Z,949.82
2018-01-22T02:35:59.816Z,949.78
2018-01-22T02:36:59.796Z,949.74
2018-01-22T02:37:59.776Z,949.8
2018-01-22T02:38:59.756Z,949.76
2018-01-22T02:39:59.736Z,949.68
2018-01-22T02:40:59.718Z,949.7
2018-01-22T02:41:59.699Z,949.71
2018-01-22T02:42:59.681Z,949.75
2018-01-22T02:43:59.658Z,949.72
2018-01-22T02:44:59.639Z,949.72
2018-01-22T02:45:59.621Z,949.73
2018-01-22T02:46:59.605Z,949.64
2018-01-22T02:47:59.580Z,949.65
2018-01-22T02:48:59.559Z,949.62
2018-01-22T02:49:59.541Z,949.6
2018-01-22T02:50:59.524Z,949.58
2018-01-22T02:51:59.510Z,949.56
2018-01-22T02:52:59.482Z,949.67
2018-01-22T02:53:59.461Z,949.64
2018-01-22T02:54:59.443Z,949.6
2018-01-22T02:55:59.424Z,949.57
2018-01-22T02:56:59.404Z,949.51
2018-01-22T02:57:59.388Z,949.49
2018-01-22T02:58:59.364Z,949.43
2018-01-22T02:59:59.344Z,949.43
2018-01-22T03:00:59.324Z,949.38
2018-01-22T03:01:59.305Z,949.37
2018-01-22T03:02:59.284Z,949.23
2018-01-22T03:03:59.266Z,949.26
2018-01-22T03:04:59.246Z,949.16
2018-01-22T03:05:59.227Z,949.13
2018-01-22T03:06:59.206Z,949.08
2018-01-22T03:07:59.187Z,949.1
2018-01-22T03:08:59.167Z,949.09
2018-01-22T03:09:59.146Z,949.05
2018-01-22T03:10:59.129Z,949.06
2018-01-22T03:11:59.107Z,949.09
2018-01-22T03:12:59.086Z,949.1
2018-01-22T03:13:59.067Z,949.06
2018-01-22T03:14:59.052Z,949.05
2018-01-22T03:15:59.027Z,948.97
2018-01-22T03:16:59.008Z,948.96
2018-01-22T03:17:58.988Z,948.98
2018-01-22T03:18:58.974Z,949.04
2018-01-22T03:19:58.948Z,948.99
2018-01-22T03:20:58.929Z,949.04
2018-01-22T03:21:58.909Z,949.04
2018-01-22T03:22:58.889Z,949.11
2018-01-22T03:23:58.868Z,949.14
2018-01-22T03:24:58.849Z,949.16
2018-01-22T03:25:58.839Z,949.01
2018-01-22T03:26:58.809Z,949.06
2018-01-22T03:27:58.812Z,949.09
2018-01-22T03:28:58.768Z,949.09
2018-01-22T03:29:58.750Z,949.15
2018-01-22T03:30:58.731Z,949.06
2018-01-22T03:31:58.710Z,949.02
2018-01-22T03:32:58.690Z,949.03
2018-01-22T03:33:58.681Z,949.05
2018-01-22T03:34:58.655Z,949.01
2018-01-22T03:35:58.650Z,948.99
2018-01-22T03:36:58.611Z,948.97
2018-01-22T03:37:58.590Z,948.88
2018-01-22T03:38:58.570Z,948.85
2018-01-22T03:39:58.551Z,948.79
2018-01-22T03:40:58.532Z,948.71
2018-01-22T03:41:58.511Z,948.68
2018-01-22T03:42:58.492Z,948.58
2018-01-22T03:43:58.473Z,948.49
2018-01-22T03:44:58.451Z,948.62
2018-01-22T03:45:58.433Z,948.55
2018-01-22T03:46:58.420Z,948.53
2018-01-22T03:47:58.393Z,948.5
2018-01-22T03:48:58.372Z,948.5
2018-01-22T03:49:58.353Z,948.53
2018-01-22T03:50:58.332Z,948.54
2018-01-22T03:51:58.363Z,948.53
2018-01-22T03:52:58.292Z,948.58
2018-01-22T03:53:58.273Z,948.49
2018-01-22T03:54:58.254Z,948.49
2018-01-22T03:55:58.233Z,948.43
2018-01-22T03:56:58.219Z,948.43
2018-01-22T03:57:58.212Z,948.46
2018-01-22T03:58:58.174Z,948.46
2018-01-22T03:59:58.153Z,948.53
2018-01-22T04:00:58.135Z,948.53
2018-01-22T04:01:58.115Z,948.55
2018-01-22T04:02:58.107Z,948.54
2018-01-22T04:03:58.076Z,948.53
2018-01-22T04:04:58.055Z,948.5
2018-01-22T04:05:58.035Z,948.52
2018-01-22T04:06:58.020Z,948.47
2018-01-22T04:07:57.994Z,948.52
2018-01-22T04:08:57.975Z,948.45
2018-01-22T04:09:57.956Z,948.47
2018-01-22T04:10:57.942Z,948.44
2018-01-22T04:11:57.916Z,948.44
2018-01-22T04:12:57.896Z,948.48
2018-01-22T04:13:57.880Z,948.5
2018-01-22T04:14:57.856Z,948.53
2018-01-22T04:15:57.837Z,948.46
2018-01-22T04:16:57.817Z,948.48
2018-01-22T04:17:57.796Z,948.38
2018-01-22T04:18:57.778Z,948.31
2018-01-22T04:19:57.759Z,948.27
2018-01-22T04:20:57.756Z,948.3
2018-01-22T04:21:57.717Z,948.32
2018-01-22T04:22:57.707Z,948.25
2018-01-22T04:23:57.679Z,948.27
2018-01-22T04:24:57.659Z,948.24
2018-01-22T04:25:57.638Z,948.28
2018-01-22T04:26:57.619Z,948.31
2018-01-22T04:27:57.600Z,948.24
2018-01-22T04:28:57.579Z,948.28
2018-01-22T04:29:57.559Z,948.24
2018-01-22T04:30:57.539Z,948.3
2018-01-22T04:31:57.520Z,948.24
2018-01-22T04:32:57.500Z,948.21
2018-01-22T04:33:57.480Z,948.1
2018-01-22T04:34:57.460Z,948.14
2018-01-22T04:35:57.439Z,948.11
2018-01-22T04:36:57.420Z,948.05
2018-01-22T04:37:57.400Z,948.02
2018-01-22T04:38:57.381Z,948.02
2018-01-22T04:39:57.380Z,948.14
2018-01-22T04:40:57.352Z,948.15
2018-01-22T04:41:57.322Z,948.09
2018-01-22T04:42:57.302Z,948.04
2018-01-22T04:43:57.281Z,948.04
2018-01-22T04:44:57.261Z,947.97
2018-01-22T04:45:57.242Z,947.99
2018-01-22T04:46:57.226Z,947.98
2018-01-22T04:47:57.202Z,947.93
2018-01-22T04:48:57.181Z,947.97
2018-01-22T04:49:57.163Z,947.93
2018-01-22T04:50:57.143Z,948.02
2018-01-22T04:51:57.122Z,948.07
2018-01-22T04:52:57.103Z,948.11
2018-01-22T04:53:57.085Z,948.19
2018-01-22T04:54:57.061Z,948.17
2018-01-22T04:55:57.042Z,948.26
2018-01-22T04:56:57.022Z,948.25
2018-01-22T04:57:57.003Z,948.18
2018-01-22T04:58:56.982Z,948.18
2018-01-22T04:59:56.962Z,948.13
2018-01-22T05:00:56.943Z,948.12
2018-01-22T05:01:56.922Z,947.98
2018-01-22T05:02:56.903Z,947.93
2018-01-22T05:03:56.881Z,947.9
2018-01-22T05:04:56.863Z,947.82
2018-01-22T05:05:56.842Z,947.83
2018-01-22T05:06:56.823Z,947.8
2018-01-22T05:07:56.805Z,947.76
2018-01-22T05:08:56.804Z,947.76
2018-01-22T05:09:56.767Z,947.73
2018-01-22T05:10:56.743Z,947.68
2018-01-22T05:11:56.725Z,947.66
2018-01-22T05:12:56.721Z,947.6
2018-01-22T05:13:56.694Z,947.6
2018-01-22T05:14:56.664Z,947.52
2018-01-22T05:15:56.644Z,947.46
2018-01-22T05:16:56.624Z,947.41
2018-01-22T05:17:56.621Z,947.43
2018-01-22T05:18:56.586Z,947.44
2018-01-22T05:19:56.566Z,947.33
2018-01-22T05:20:56.546Z,947.31
2018-01-22T05:21:56.525Z,947.38
2018-01-22T05:22:56.505Z,947.37
2018-01-22T05:23:56.485Z,947.23
2018-01-22T05:24:56.467Z,947.22
2018-01-22T05:25:56.447Z,947.16
2018-01-22T05:26:56.425Z,947.12
2018-01-22T05:27:56.406Z,947.11
2018-01-22T05:28:56.409Z,947.07
2018-01-22T05:29:56.366Z,947.08
2018-01-22T05:30:56.348Z,947.09
2018-01-22T05:31:56.326Z,947.1
2018-01-22T05:32:56.306Z,946.97
2018-01-22T05:33:56.287Z,947.01
2018-01-22T05:34:56.267Z,946.98
2018-01-22T05:35:56.247Z,947.04
2018-01-22T05:36:56.227Z,947.05
2018-01-22T05:37:56.224Z,947.09
2018-01-22T05:38:56.187Z,947.22
2018-01-22T05:39:56.167Z,947.21
2018-01-22T05:40:56.148Z,947.21
2018-01-22T05:41:56.126Z,947.23
2018-01-22T05:42:56.107Z,947.09
2018-01-22T05:43:56.088Z,947.1
2018-01-22T05:44:56.069Z,947.12
2018-01-22T05:45:56.047Z,947.09
2018-01-22T05:46:56.028Z,947.05
2018-01-22T05:47:56.008Z,946.93
2018-01-22T05:48:55.988Z,946.96
2018-01-22T05:49:55.967Z,946.96
2018-01-22T05:50:55.950Z,946.95
2018-01-22T05:51:55.929Z,946.98
2018-01-22T05:52:55.907Z,946.98
2018-01-22T05:53:55.890Z,946.99
2018-01-22T05:54:55.869Z,946.97
2018-01-22T05:55:55.854Z,947.01
2018-01-22T05:56:55.829Z,947
2018-01-22T05:57:55.810Z,947.01
2018-01-22T05:58:55.792Z,947.08
2018-01-22T05:59:55.771Z,947.02
2018-01-22T06:00:55.753Z,947.1
2018-01-22T06:01:55.730Z,947.12
2018-01-22T06:02:55.711Z,947.16
2018-01-22T06:03:55.691Z,947.2
2018-01-22T06:04:55.671Z,947.18
2018-01-22T06:05:55.669Z,947.2
2018-01-22T06:06:55.631Z,947.12
2018-01-22T06:07:55.611Z,947.13
2018-01-22T06:08:55.620Z,947.16
2018-01-22T06:09:55.575Z,947.13
2018-01-22T06:10:55.550Z,947.2
2018-01-22T06:11:55.531Z,947.15
2018-01-22T06:12:55.512Z,947.19
2018-01-22T06:13:55.510Z,947.24
2018-01-22T06:14:55.471Z,947.19
2018-01-22T06:15:55.452Z,947.24
2018-01-22T06:16:55.432Z,947.26
2018-01-22T06:17:55.431Z,947.24
2018-01-22T06:18:55.393Z,947.25
2018-01-22T06:19:55.392Z,947.23
2018-01-22T06:20:55.352Z,947.21
2018-01-22T06:21:55.336Z,947.17
2018-01-22T06:22:55.311Z,947.11
2018-01-22T06:23:55.311Z,947.06
2018-01-22T06:24:55.273Z,947.06
2018-01-22T06:25:55.254Z,947.04
2018-01-22T06:26:55.233Z,947.01
2018-01-22T06:27:55.217Z,947.09
2018-01-22T06:28:55.195Z,947.07
2018-01-22T06:29:55.173Z,947.07
2018-01-22T06:30:55.154Z,947.1
2018-01-22T06:31:55.134Z,947.09
2018-01-22T06:32:55.113Z,947.03
2018-01-22T06:33:55.095Z,947.04
2018-01-22T06:34:55.076Z,946.93
2018-01-22T06:35:55.056Z,946.96
2018-01-22T06:36:55.033Z,946.94
2018-01-22T06:37:55.016Z,947
2018-01-22T06:38:54.995Z,947.13
2018-01-22T06:39:54.975Z,947.15
2018-01-22T06:40:54.954Z,947.22
2018-01-22T06:41:54.935Z,947.29
2018-01-22T06:42:54.916Z,947.27
2018-01-22T06:43:54.895Z,947.31
2018-01-22T06:44:54.875Z,947.3
2018-01-22T06:45:54.858Z,947.33
2018-01-22T06:46:54.837Z,947.32
2018-01-22T06:47:54.817Z,947.32
2018-01-22T06:48:54.814Z,947.23
2018-01-22T06:49:54.776Z,947.1
2018-01-22T06:50:54.757Z,946.99
2018-01-22T06:51:54.737Z,946.95
2018-01-22T06:52:54.724Z,946.88
2018-01-22T06:53:54.697Z,946.8
2018-01-22T06:54:54.677Z,946.83
2018-01-22T06:55:54.657Z,946.83
2018-01-22T06:56:54.636Z,946.88
2018-01-22T06:57:54.617Z,946.91
2018-01-22T06:58:54.597Z,946.81
2018-01-22T06:59:54.578Z,946.94
2018-01-22T07:00:54.559Z,946.93
2018-01-22T07:01:54.539Z,946.95
2018-01-22T07:02:54.518Z,946.88
2018-01-22T07:03:54.497Z,946.89
2018-01-22T07:04:54.479Z,946.83
2018-01-22T07:05:54.458Z,946.82
2018-01-22T07:06:54.437Z,946.93
2018-01-22T07:07:54.419Z,946.87
2018-01-22T07:08:54.399Z,946.9
2018-01-22T07:09:54.380Z,946.83
2018-01-22T07:10:54.359Z,946.76
2018-01-22T07:11:54.339Z,946.76
2018-01-22T07:12:54.321Z,946.68
2018-01-22T07:13:54.302Z,946.63
2018-01-22T07:14:54.280Z,946.55
2018-01-22T07:15:54.264Z,946.64
2018-01-22T07:16:54.261Z,946.55
2018-01-22T07:17:54.221Z,946.58
2018-01-22T07:18:54.203Z,946.51
2018-01-22T07:19:54.182Z,946.49
2018-01-22T07:20:54.166Z,946.47
2018-01-22T07:21:54.142Z,946.45
2018-01-22T07:22:54.123Z,946.39
2018-01-22T07:23:54.103Z,946.41
2018-01-22T07:24:54.083Z,946.43
2018-01-22T07:25:54.064Z,946.32
2018-01-22T07:26:54.044Z,946.33
2018-01-22T07:27:54.024Z,946.25
2018-01-22T07:28:54.024Z,946.25
2018-01-22T07:29:53.990Z,946.13
2018-01-22T07:30:53.975Z,946.09
2018-01-22T07:31:53.944Z,946.18
2018-01-22T07:32:53.923Z,946.19
2018-01-22T07:33:53.904Z,946.2
2018-01-22T07:34:53.886Z,946.31
2018-01-22T07:35:53.867Z,946.21
2018-01-22T07:36:53.866Z,946.26
2018-01-22T07:37:53.828Z,946.19
2018-01-22T07:38:53.807Z,946.14
2018-01-22T07:39:53.786Z,946.1
2018-01-22T07:40:53.767Z,946.1
2018-01-22T07:41:53.748Z,946.16
2018-01-22T07:42:53.727Z,946.15
2018-01-22T07:43:53.710Z,946.1
2018-01-22T07:44:53.689Z,946.11
2018-01-22T07:45:53.669Z,946.05
2018-01-22T07:46:53.650Z,946.13
2018-01-22T07:47:53.630Z,946.17
2018-01-22T07:48:53.610Z,946.27
2018-01-22T07:49:53.589Z,946.29
2018-01-22T07:50:53.573Z,946.21
2018-01-22T07:51:53.550Z,946.2
2018-01-22T07:52:53.530Z,946.17
2018-01-22T07:53:53.512Z,946.25
2018-01-22T07:54:53.491Z,946.07
2018-01-22T07:55:53.481Z,946.13
2018-01-22T07:56:53.453Z,946
2018-01-22T07:57:53.432Z,946.04
2018-01-22T07:58:53.413Z,946.01
2018-01-22T07:59:53.393Z,946.01
2018-01-22T08:00:53.372Z,945.97
2018-01-22T08:01:53.353Z,945.98
2018-01-22T08:02:53.335Z,945.95
2018-01-22T08:03:53.315Z,945.99
2018-01-22T08:04:53.300Z,945.9
2018-01-22T08:05:53.275Z,945.94
2018-01-22T08:06:53.258Z,945.97
2018-01-22T08:07:53.235Z,945.95
2018-01-22T08:08:53.216Z,945.95
2018-01-22T08:09:53.196Z,946.11
2018-01-22T08:10:53.177Z,946.1
2018-01-22T08:11:53.158Z,946.1
2018-01-22T08:12:53.138Z,946.12
2018-01-22T08:13:53.118Z,946.13
2018-01-22T08:14:53.099Z,946.24
2018-01-22T08:15:53.090Z,946.17
2018-01-22T08:16:53.060Z,946.23
2018-01-22T08:17:53.040Z,946.22
2018-01-22T08:18:53.018Z,946.21
2018-01-22T08:19:53.000Z,946.3
2018-01-22T08:20:52.982Z,946.33
2018-01-22T08:21:52.961Z,946.27
2018-01-22T08:22:52.942Z,946.24
2018-01-22T08:23:52.923Z,946.26
2018-01-22T08:24:52.905Z,946.33
2018-01-22T08:25:52.884Z,946.21
2018-01-22T08:26:52.863Z,946.16
2018-01-22T08:27:52.845Z,946.13
2018-01-22T08:28:52.826Z,946.07
2018-01-22T08:29:52.806Z,946.05
2018-01-22T08:30:52.805Z,946.05
2018-01-22T08:31:52.768Z,946.06
2018-01-22T08:32:52.749Z,946.03
2018-01-22T08:33:52.730Z,946.11
2018-01-22T08:34:52.709Z,946.11
2018-01-22T08:35:52.691Z,946.18
2018-01-22T08:36:52.673Z,946.02
2018-01-22T08:37:52.651Z,946.05
2018-01-22T08:38:52.633Z,946.06
2018-01-22T08:39:52.614Z,946.14
2018-01-22T08:40:52.594Z,945.93
2018-01-22T08:41:52.574Z,946.12
2018-01-22T08:42:52.564Z,946.1
2018-01-22T08:43:52.535Z,946.12
2018-01-22T08:44:52.532Z,946.07
2018-01-22T08:45:52.497Z,946.1
2018-01-22T08:46:52.479Z,946.09
2018-01-22T08:47:52.459Z,946.1
2018-01-22T08:48:52.440Z,946.06
2018-01-22T08:49:52.421Z,946.09
2018-01-22T08:50:52.402Z,946.1
2018-01-22T08:51:52.381Z,946.05
2018-01-22T08:52:52.377Z,946.1
2018-01-22T08:53:52.346Z,945.94
2018-01-22T08:54:52.324Z,946.07
2018-01-22T08:55:52.305Z,946.08
2018-01-22T08:56:52.288Z,946.14
2018-01-22T08:57:52.269Z,946.2
2018-01-22T08:58:52.248Z,946.12
2018-01-22T08:59:52.229Z,946.19
2018-01-22T09:00:52.220Z,946.23
2018-01-22T09:01:52.192Z,946.14
2018-01-22T09:02:52.171Z,946.21
2018-01-22T09:03:52.152Z,946.2
2018-01-22T09:04:52.135Z,946.18
2018-01-22T09:05:52.115Z,946.11
2018-01-22T09:06:52.094Z,946.16
2018-01-22T09:07:52.075Z,946.11
2018-01-22T09:08:52.057Z,946.04
2018-01-22T09:09:52.039Z,945.98
2018-01-22T09:10:52.020Z,945.99
2018-01-22T09:11:52.024Z,945.93
2018-01-22T09:12:51.986Z,946.03
2018-01-22T09:13:51.961Z,946.03
2018-01-22T09:14:51.947Z,946.03
2018-01-22T09:15:51.926Z,946.07
2018-01-22T09:16:51.907Z,945.97
2018-01-22T09:17:51.888Z,945.95
2018-01-22T09:18:51.869Z,945.91
2018-01-22T09:19:51.850Z,945.87
2018-01-22T09:20:51.830Z,945.88
2018-01-22T09:21:51.812Z,945.78
2018-01-22T09:22:51.795Z,945.76
2018-01-22T09:23:51.785Z,945.74
2018-01-22T09:24:51.755Z,945.7
2018-01-22T09:25:51.758Z,945.71
2018-01-22T09:26:51.722Z,945.68
2018-01-22T09:27:51.700Z,945.66
2018-01-22T09:28:51.681Z,945.74
2018-01-22T09:29:51.662Z,945.59
2018-01-22T09:30:51.644Z,945.56
2018-01-22T09:31:51.624Z,945.65
2018-01-22T09:32:51.606Z,945.68
2018-01-22T09:33:51.587Z,945.68
2018-01-22T09:34:51.569Z,945.62
2018-01-22T09:35:51.556Z,945.65
2018-01-22T09:36:51.628Z,945.71
2018-01-22T09:37:51.524Z,945.65
2018-01-22T09:38:51.495Z,945.7
2018-01-22T09:39:51.477Z,945.7
2018-01-22T09:40:51.457Z,945.77
2018-01-22T09:41:51.441Z,945.76
2018-01-22T09:42:51.422Z,945.7
2018-01-22T09:43:51.401Z,945.74
2018-01-22T09:44:51.386Z,945.71
2018-01-22T09:45:51.363Z,945.77
2018-01-22T09:46:51.345Z,945.7
2018-01-22T09:47:51.326Z,945.7
2018-01-22T09:48:51.309Z,945.75
2018-01-22T09:49:51.290Z,945.68
2018-01-22T09:50:51.270Z,945.67
2018-01-22T09:51:51.251Z,945.65
2018-01-22T09:52:51.233Z,945.72
2018-01-22T09:53:51.216Z,945.6
2018-01-22T09:54:51.198Z,945.57
2018-01-22T09:55:51.177Z,945.64
2018-01-22T09:56:51.160Z,945.63
2018-01-22T09:57:51.140Z,945.66
2018-01-22T09:58:51.122Z,945.59
2018-01-22T09:59:51.103Z,945.56
2018-01-22T10:00:51.085Z,945.54
2018-01-22T10:01:51.066Z,945.61
2018-01-22T10:02:51.070Z,945.55
2018-01-22T10:03:51.029Z,945.61
2018-01-22T10:04:51.011Z,945.55
2018-01-22T10:05:50.993Z,945.53
2018-01-22T10:06:50.973Z,945.69
2018-01-22T10:07:50.957Z,945.58
2018-01-22T10:08:50.942Z,945.62
2018-01-22T10:09:50.919Z,945.62
2018-01-22T10:10:50.902Z,945.54
2018-01-22T10:11:50.883Z,945.54
2018-01-22T10:12:50.865Z,945.53
2018-01-22T10:13:50.847Z,945.4
2018-01-22T10:14:50.828Z,945.45
2018-01-22T10:15:50.832Z,945.46
2018-01-22T10:16:50.791Z,945.41
2018-01-22T10:17:50.782Z,945.33
2018-01-22T10:18:50.755Z,945.39
2018-01-22T10:19:50.739Z,945.32
2018-01-22T10:20:50.720Z,945.25
2018-01-22T10:21:50.700Z,945.3
2018-01-22T10:22:50.683Z,945.32
2018-01-22T10:23:50.664Z,945.28
2018-01-22T10:24:50.646Z,945.3
2018-01-22T10:25:50.630Z,945.28
2018-01-22T10:26:50.610Z,945.33
2018-01-22T10:27:50.593Z,945.31
2018-01-22T10:28:50.575Z,945.27
2018-01-22T10:29:50.560Z,945.31
2018-01-22T10:30:50.539Z,945.32
2018-01-22T10:31:50.521Z,945.25
2018-01-22T10:32:50.502Z,945.24
2018-01-22T10:33:50.485Z,945.26
2018-01-22T10:34:50.466Z,945.3
2018-01-22T10:35:50.448Z,945.34
2018-01-22T10:36:50.433Z,945.3
2018-01-22T10:37:50.415Z,945.19
2018-01-22T10:38:50.393Z,945.23
2018-01-22T10:39:50.382Z,945.21
2018-01-22T10:40:50.359Z,945.23
2018-01-22T10:41:50.339Z,945.25
2018-01-22T10:42:50.327Z,945.11
2018-01-22T10:43:50.313Z,945.2
2018-01-22T10:44:50.299Z,945.09
2018-01-22T10:45:50.270Z,945.17
2018-01-22T10:46:50.250Z,945.05
2018-01-22T10:47:50.232Z,945.09
2018-01-22T10:48:50.218Z,945.08
2018-01-22T10:49:50.196Z,945.06
2018-01-22T10:50:50.178Z,945.05
2018-01-22T10:51:50.160Z,945.06
2018-01-22T10:52:50.141Z,945.06
2018-01-22T10:53:50.124Z,945.06
2018-01-22T10:54:50.105Z,944.96
2018-01-22T10:55:50.093Z,944.98
2018-01-22T10:56:50.070Z,944.92
2018-01-22T10:57:50.061Z,944.77
2018-01-22T10:58:50.035Z,944.83
2018-01-22T10:59:50.041Z,944.7
2018-01-22T11:00:49.997Z,944.73
2018-01-22T11:01:49.980Z,944.65
2018-01-22T11:02:49.963Z,944.57
2018-01-22T11:03:49.943Z,944.52
2018-01-22T11:04:49.925Z,944.48
2018-01-22T11:05:49.908Z,944.5
2018-01-22T11:06:49.889Z,944.52
2018-01-22T11:07:49.871Z,944.4
2018-01-22T11:08:49.913Z,944.3
2018-01-22T11:09:49.836Z,944.39
2018-01-22T11:10:49.818Z,944.44
2018-01-22T11:11:49.800Z,944.48
2018-01-22T11:12:49.783Z,944.44
2018-01-22T11:13:49.769Z,944.47
2018-01-22T11:14:49.765Z,944.29
2018-01-22T11:15:49.729Z,944.33
2018-01-22T11:16:49.719Z,944.45
2018-01-22T11:17:49.694Z,944.32
2018-01-22T11:18:49.676Z,944.56
2018-01-22T11:19:49.659Z,944.35
2018-01-22T11:20:49.648Z,944.43
2018-01-22T11:21:49.623Z,944.39
2018-01-22T11:22:49.608Z,944.32
2018-01-22T11:23:49.591Z,944.29
2018-01-22T11:24:49.571Z,944.32
2018-01-22T11:25:49.603Z,944.32
2018-01-22T11:26:49.540Z,944.28
2018-01-22T11:27:49.519Z,944.29
2018-01-22T11:28:49.500Z,944.38
2018-01-22T11:29:49.488Z,944.32
2018-01-22T11:30:49.467Z,944.25
2018-01-22T11:31:49.450Z,944.21
2018-01-22T11:32:49.433Z,944.17
2018-01-22T11:33:49.414Z,944.15
2018-01-22T11:34:49.407Z,944.14
2018-01-22T11:35:49.381Z,944.08
2018-01-22T11:36:49.363Z,944.08
2018-01-22T11:37:49.346Z,944.24
2018-01-22T11:38:49.328Z,944.08
2018-01-22T11:39:49.312Z,944.09
2018-01-22T11:40:49.293Z,944.04
2018-01-22T11:41:49.276Z,944.03
2018-01-22T11:42:49.261Z,944.05
2018-01-22T11:43:49.262Z,944.17
2018-01-22T11:44:49.224Z,944.05
2018-01-22T11:45:49.208Z,944.09
2018-01-22T11:46:49.190Z,944.13
2018-01-22T11:47:49.171Z,944.17
2018-01-22T11:48:49.155Z,944.11
2018-01-22T11:49:49.137Z,944.09
2018-01-22T11:50:49.120Z,944.27
2018-01-22T11:51:49.102Z,943.9
2018-01-22T11:52:49.085Z,944.15
2018-01-22T11:53:49.068Z,944.14
2018-01-22T11:54:49.050Z,944.16
2018-01-22T11:55:49.032Z,944.15
2018-01-22T11:56:49.030Z,944.12
2018-01-22T11:57:49.005Z,944.15
2018-01-22T11:58:48.980Z,944.25
2018-01-22T11:59:48.962Z,944.18
2018-01-22T12:00:48.949Z,944.14
2018-01-22T12:01:48.927Z,944.17
2018-01-22T12:02:48.911Z,944.17
2018-01-22T12:03:48.893Z,944.14
2018-01-22T12:04:48.875Z,944.09
2018-01-22T12:05:48.857Z,944.04
2018-01-22T12:06:48.838Z,943.99
2018-01-22T12:07:48.822Z,943.98
2018-01-22T12:08:48.805Z,943.95
2018-01-22T12:09:48.785Z,943.82
2018-01-22T12:10:48.770Z,943.77
2018-01-22T12:11:48.756Z,943.85
2018-01-22T12:12:48.736Z,943.84
2018-01-22T12:13:48.717Z,943.92
2018-01-22T12:14:48.698Z,943.95
2018-01-22T12:15:48.682Z,943.93
2018-01-22T12:16:48.663Z,943.9
2018-01-22T12:17:48.645Z,943.88
2018-01-22T12:18:48.629Z,943.87
2018-01-22T12:19:48.612Z,943.79
2018-01-22T12:20:48.595Z,943.69
2018-01-22T12:21:48.580Z,943.77
2018-01-22T12:22:48.564Z,943.8
2018-01-22T12:23:48.542Z,943.81
2018-01-22T12:24:48.527Z,943.69
2018-01-22T12:25:48.512Z,943.72
2018-01-22T12:26:48.491Z,943.68
2018-01-22T12:27:48.473Z,943.71
2018-01-22T12:28:48.475Z,943.71
2018-01-22T12:29:48.438Z,943.72
2018-01-22T12:30:48.421Z,943.73